sensor_id;sensor_type;location;lat;lon;timestamp;P1;durP1;ratioP1;P2;durP2;ratioP2
37288;SDS011;23174;49.462;11.000;2024-03-08T00:00:22;16.42;;;14.27;;
37288;SDS011;23174;49.462;11.000;2024-03-08T00:02:22;16.98;;;14.43;;
37288;SDS011;23174;49.462;11.000;2024-03-08T00:04:23;15.52;;;13.82;;
37288;SDS011;23174;49.462;11.000;2024-03-08T00:06:23;16.63;;;14.23;;
37288;SDS011;23174;49.462;11.000;2024-03-08T00:08:24;16.55;;;13.75;;
37288;SDS011;23174;49.462;11.000;2024-03-08T00:10:25;17.30;;;14.18;;
37288;SDS011;23174;49.462;11.000;2024-03-08T00:12:25;15.57;;;13.98;;
37288;SDS011;23174;49.462;11.000;2024-03-08T00:14:26;15.80;;;14.13;;
37288;SDS011;23174;49.462;11.000;2024-03-08T00:16:27;14.80;;;13.30;;
37288;SDS011;23174;49.462;11.000;2024-03-08T00:18:28;15.45;;;13.77;;
37288;SDS011;23174;49.462;11.000;2024-03-08T00:20:29;16.48;;;14.57;;
37288;SDS011;23174;49.462;11.000;2024-03-08T00:22:30;16.50;;;14.50;;
37288;SDS011;23174;49.462;11.000;2024-03-08T00:24:30;16.60;;;14.15;;
37288;SDS011;23174;49.462;11.000;2024-03-08T00:26:31;18.23;;;14.40;;
37288;SDS011;23174;49.462;11.000;2024-03-08T00:28:33;16.70;;;14.25;;
37288;SDS011;23174;49.462;11.000;2024-03-08T00:30:36;16.52;;;14.30;;
37288;SDS011;23174;49.462;11.000;2024-03-08T00:32:37;16.33;;;14.63;;
37288;SDS011;23174;49.462;11.000;2024-03-08T00:34:38;17.67;;;13.93;;
37288;SDS011;23174;49.462;11.000;2024-03-08T00:36:38;14.63;;;13.13;;
37288;SDS011;23174;49.462;11.000;2024-03-08T00:38:39;16.52;;;13.63;;
37288;SDS011;23174;49.462;11.000;2024-03-08T00:40:39;15.65;;;13.85;;
37288;SDS011;23174;49.462;11.000;2024-03-08T00:42:40;17.83;;;14.98;;
37288;SDS011;23174;49.462;11.000;2024-03-08T00:44:42;17.42;;;14.25;;
37288;SDS011;23174;49.462;11.000;2024-03-08T00:46:42;18.38;;;14.18;;
37288;SDS011;23174;49.462;11.000;2024-03-08T00:48:43;15.85;;;14.00;;
37288;SDS011;23174;49.462;11.000;2024-03-08T00:50:43;15.02;;;13.60;;
37288;SDS011;23174;49.462;11.000;2024-03-08T00:52:47;16.42;;;13.82;;
37288;SDS011;23174;49.462;11.000;2024-03-08T00:54:48;15.75;;;13.95;;
37288;SDS011;23174;49.462;11.000;2024-03-08T00:56:48;16.85;;;14.50;;
37288;SDS011;23174;49.462;11.000;2024-03-08T00:58:49;15.70;;;13.98;;
37288;SDS011;23174;49.462;11.000;2024-03-08T01:00:49;18.88;;;14.90;;
37288;SDS011;23174;49.462;11.000;2024-03-08T01:02:50;18.30;;;14.27;;
37288;SDS011;23174;49.462;11.000;2024-03-08T01:04:50;15.95;;;14.25;;
37288;SDS011;23174;49.462;11.000;2024-03-08T01:06:50;16.67;;;14.50;;
37288;SDS011;23174;49.462;11.000;2024-03-08T01:08:51;19.08;;;13.95;;
37288;SDS011;23174;49.462;11.000;2024-03-08T01:10:52;16.52;;;14.02;;
37288;SDS011;23174;49.462;11.000;2024-03-08T01:12:53;16.05;;;13.75;;
37288;SDS011;23174;49.462;11.000;2024-03-08T01:14:56;16.30;;;14.60;;
37288;SDS011;23174;49.462;11.000;2024-03-08T01:16:58;16.55;;;14.77;;
37288;SDS011;23174;49.462;11.000;2024-03-08T01:18:59;15.80;;;14.13;;
37288;SDS011;23174;49.462;11.000;2024-03-08T01:20:59;17.08;;;13.68;;
37288;SDS011;23174;49.462;11.000;2024-03-08T01:23:00;15.48;;;13.88;;
37288;SDS011;23174;49.462;11.000;2024-03-08T01:25:00;16.10;;;14.50;;
37288;SDS011;23174;49.462;11.000;2024-03-08T01:27:00;15.27;;;13.60;;
37288;SDS011;23174;49.462;11.000;2024-03-08T01:29:02;15.93;;;14.02;;
37288;SDS011;23174;49.462;11.000;2024-03-08T01:31:03;16.80;;;13.93;;
37288;SDS011;23174;49.462;11.000;2024-03-08T01:33:04;17.33;;;14.48;;
37288;SDS011;23174;49.462;11.000;2024-03-08T01:35:04;15.98;;;14.25;;
37288;SDS011;23174;49.462;11.000;2024-03-08T01:37:05;15.70;;;13.80;;
37288;SDS011;23174;49.462;11.000;2024-03-08T01:39:06;15.88;;;14.07;;
37288;SDS011;23174;49.462;11.000;2024-03-08T01:41:07;16.92;;;14.65;;
37288;SDS011;23174;49.462;11.000;2024-03-08T01:43:16;16.30;;;14.60;;
37288;SDS011;23174;49.462;11.000;2024-03-08T01:45:18;16.08;;;14.38;;
37288;SDS011;23174;49.462;11.000;2024-03-08T01:47:19;20.25;;;15.18;;
37288;SDS011;23174;49.462;11.000;2024-03-08T01:49:22;17.08;;;14.48;;
37288;SDS011;23174;49.462;11.000;2024-03-08T01:51:28;15.68;;;13.77;;
37288;SDS011;23174;49.462;11.000;2024-03-08T01:53:30;14.88;;;13.18;;
37288;SDS011;23174;49.462;11.000;2024-03-08T01:55:32;16.52;;;14.73;;
37288;SDS011;23174;49.462;11.000;2024-03-08T01:57:35;20.67;;;14.57;;
37288;SDS011;23174;49.462;11.000;2024-03-08T01:59:38;15.35;;;13.85;;
37288;SDS011;23174;49.462;11.000;2024-03-08T02:01:39;14.63;;;13.10;;
37288;SDS011;23174;49.462;11.000;2024-03-08T02:03:39;15.13;;;13.63;;
37288;SDS011;23174;49.462;11.000;2024-03-08T02:05:40;16.55;;;14.95;;
37288;SDS011;23174;49.462;11.000;2024-03-08T02:07:41;18.73;;;14.45;;
37288;SDS011;23174;49.462;11.000;2024-03-08T02:09:44;16.38;;;14.57;;
37288;SDS011;23174;49.462;11.000;2024-03-08T02:11:44;18.95;;;14.32;;
37288;SDS011;23174;49.462;11.000;2024-03-08T02:13:46;15.45;;;13.98;;
37288;SDS011;23174;49.462;11.000;2024-03-08T02:15:53;15.73;;;13.73;;
37288;SDS011;23174;49.462;11.000;2024-03-08T02:17:59;15.73;;;13.40;;
37288;SDS011;23174;49.462;11.000;2024-03-08T02:19:59;15.75;;;14.15;;
37288;SDS011;23174;49.462;11.000;2024-03-08T02:22:01;15.23;;;13.63;;
37288;SDS011;23174;49.462;11.000;2024-03-08T02:24:04;18.92;;;14.02;;
37288;SDS011;23174;49.462;11.000;2024-03-08T02:26:05;20.80;;;14.40;;
37288;SDS011;23174;49.462;11.000;2024-03-08T02:28:09;16.20;;;14.50;;
37288;SDS011;23174;49.462;11.000;2024-03-08T02:30:11;18.48;;;14.38;;
37288;SDS011;23174;49.462;11.000;2024-03-08T02:32:12;17.52;;;14.82;;
37288;SDS011;23174;49.462;11.000;2024-03-08T02:34:12;19.70;;;14.60;;
37288;SDS011;23174;49.462;11.000;2024-03-08T02:36:14;18.83;;;15.30;;
37288;SDS011;23174;49.462;11.000;2024-03-08T02:38:16;16.98;;;14.45;;
37288;SDS011;23174;49.462;11.000;2024-03-08T02:40:18;15.52;;;13.90;;
37288;SDS011;23174;49.462;11.000;2024-03-08T02:42:19;15.57;;;13.98;;
37288;SDS011;23174;49.462;11.000;2024-03-08T02:44:19;16.52;;;14.85;;
37288;SDS011;23174;49.462;11.000;2024-03-08T02:46:21;16.67;;;14.70;;
37288;SDS011;23174;49.462;11.000;2024-03-08T02:48:22;18.77;;;14.80;;
37288;SDS011;23174;49.462;11.000;2024-03-08T02:50:22;21.40;;;14.23;;
37288;SDS011;23174;49.462;11.000;2024-03-08T02:52:23;16.65;;;14.88;;
37288;SDS011;23174;49.462;11.000;2024-03-08T02:54:23;18.30;;;15.32;;
37288;SDS011;23174;49.462;11.000;2024-03-08T02:56:24;15.90;;;14.20;;
37288;SDS011;23174;49.462;11.000;2024-03-08T02:58:24;17.17;;;14.50;;
37288;SDS011;23174;49.462;11.000;2024-03-08T03:00:25;16.13;;;14.43;;
37288;SDS011;23174;49.462;11.000;2024-03-08T03:02:26;16.30;;;14.60;;
37288;SDS011;23174;49.462;11.000;2024-03-08T03:04:27;16.95;;;15.15;;
37288;SDS011;23174;49.462;11.000;2024-03-08T03:06:27;16.00;;;14.30;;
37288;SDS011;23174;49.462;11.000;2024-03-08T03:08:28;17.90;;;14.93;;
37288;SDS011;23174;49.462;11.000;2024-03-08T03:10:28;17.25;;;14.45;;
37288;SDS011;23174;49.462;11.000;2024-03-08T03:12:29;18.10;;;14.70;;
37288;SDS011;23174;49.462;11.000;2024-03-08T03:14:30;16.50;;;14.60;;
37288;SDS011;23174;49.462;11.000;2024-03-08T03:16:31;18.17;;;14.73;;
37288;SDS011;23174;49.462;11.000;2024-03-08T03:18:31;17.92;;;14.55;;
37288;SDS011;23174;49.462;11.000;2024-03-08T03:20:32;16.27;;;14.27;;
37288;SDS011;23174;49.462;11.000;2024-03-08T03:22:37;15.88;;;14.27;;
37288;SDS011;23174;49.462;11.000;2024-03-08T03:24:38;17.02;;;14.93;;
37288;SDS011;23174;49.462;11.000;2024-03-08T03:26:39;16.92;;;15.18;;
37288;SDS011;23174;49.462;11.000;2024-03-08T03:28:40;19.70;;;15.18;;
37288;SDS011;23174;49.462;11.000;2024-03-08T03:30:41;17.33;;;14.80;;
37288;SDS011;23174;49.462;11.000;2024-03-08T03:32:41;17.27;;;14.40;;
37288;SDS011;23174;49.462;11.000;2024-03-08T03:34:46;16.60;;;14.80;;
37288;SDS011;23174;49.462;11.000;2024-03-08T03:36:47;18.23;;;14.45;;
37288;SDS011;23174;49.462;11.000;2024-03-08T03:38:48;17.63;;;15.52;;
37288;SDS011;23174;49.462;11.000;2024-03-08T03:40:49;16.33;;;14.30;;
37288;SDS011;23174;49.462;11.000;2024-03-08T03:42:52;18.27;;;14.73;;
37288;SDS011;23174;49.462;11.000;2024-03-08T03:44:52;17.13;;;15.32;;
37288;SDS011;23174;49.462;11.000;2024-03-08T03:46:53;16.55;;;14.75;;
37288;SDS011;23174;49.462;11.000;2024-03-08T03:48:54;15.65;;;14.15;;
37288;SDS011;23174;49.462;11.000;2024-03-08T03:50:55;16.02;;;14.43;;
37288;SDS011;23174;49.462;11.000;2024-03-08T03:52:56;15.32;;;13.80;;
37288;SDS011;23174;49.462;11.000;2024-03-08T03:54:57;16.52;;;14.82;;
37288;SDS011;23174;49.462;11.000;2024-03-08T03:56:57;15.55;;;13.95;;
37288;SDS011;23174;49.462;11.000;2024-03-08T03:58:58;16.90;;;14.93;;
37288;SDS011;23174;49.462;11.000;2024-03-08T04:00:58;17.13;;;14.90;;
37288;SDS011;23174;49.462;11.000;2024-03-08T04:02:59;16.48;;;14.77;;
37288;SDS011;23174;49.462;11.000;2024-03-08T04:05:00;17.15;;;15.15;;
37288;SDS011;23174;49.462;11.000;2024-03-08T04:07:02;19.30;;;15.20;;
37288;SDS011;23174;49.462;11.000;2024-03-08T04:09:02;18.98;;;14.90;;
37288;SDS011;23174;49.462;11.000;2024-03-08T04:11:04;16.85;;;14.80;;
37288;SDS011;23174;49.462;11.000;2024-03-08T04:13:04;16.50;;;14.15;;
37288;SDS011;23174;49.462;11.000;2024-03-08T04:15:05;18.45;;;15.52;;
37288;SDS011;23174;49.462;11.000;2024-03-08T04:17:10;16.92;;;14.73;;
37288;SDS011;23174;49.462;11.000;2024-03-08T04:19:11;16.52;;;14.85;;
37288;SDS011;23174;49.462;11.000;2024-03-08T04:21:12;16.60;;;14.35;;
37288;SDS011;23174;49.462;11.000;2024-03-08T04:23:12;17.83;;;14.93;;
37288;SDS011;23174;49.462;11.000;2024-03-08T04:25:13;24.88;;;14.20;;
37288;SDS011;23174;49.462;11.000;2024-03-08T04:27:13;17.83;;;13.77;;
37288;SDS011;23174;49.462;11.000;2024-03-08T04:29:14;20.60;;;15.90;;
37288;SDS011;23174;49.462;11.000;2024-03-08T04:31:14;16.60;;;14.88;;
37288;SDS011;23174;49.462;11.000;2024-03-08T04:33:15;16.10;;;14.40;;
37288;SDS011;23174;49.462;11.000;2024-03-08T04:35:18;16.50;;;14.10;;
37288;SDS011;23174;49.462;11.000;2024-03-08T04:37:20;16.25;;;14.63;;
37288;SDS011;23174;49.462;11.000;2024-03-08T04:39:22;15.77;;;14.18;;
37288;SDS011;23174;49.462;11.000;2024-03-08T04:41:22;17.17;;;15.38;;
37288;SDS011;23174;49.462;11.000;2024-03-08T04:43:23;17.95;;;15.90;;
37288;SDS011;23174;49.462;11.000;2024-03-08T04:45:26;17.05;;;15.20;;
37288;SDS011;23174;49.462;11.000;2024-03-08T04:47:27;16.33;;;14.63;;
37288;SDS011;23174;49.462;11.000;2024-03-08T04:49:28;18.50;;;14.65;;
37288;SDS011;23174;49.462;11.000;2024-03-08T04:51:28;19.40;;;15.57;;
37288;SDS011;23174;49.462;11.000;2024-03-08T04:53:29;20.88;;;15.80;;
37288;SDS011;23174;49.462;11.000;2024-03-08T04:55:29;17.42;;;15.45;;
37288;SDS011;23174;49.462;11.000;2024-03-08T04:57:30;18.90;;;15.25;;
37288;SDS011;23174;49.462;11.000;2024-03-08T04:59:30;16.42;;;14.38;;
37288;SDS011;23174;49.462;11.000;2024-03-08T05:01:31;16.58;;;14.38;;
37288;SDS011;23174;49.462;11.000;2024-03-08T05:03:31;22.88;;;17.17;;
37288;SDS011;23174;49.462;11.000;2024-03-08T05:05:32;25.45;;;20.05;;
37288;SDS011;23174;49.462;11.000;2024-03-08T05:07:33;20.55;;;18.23;;
37288;SDS011;23174;49.462;11.000;2024-03-08T05:09:33;18.75;;;16.73;;
37288;SDS011;23174;49.462;11.000;2024-03-08T05:11:36;17.58;;;15.80;;
37288;SDS011;23174;49.462;11.000;2024-03-08T05:13:36;17.92;;;16.02;;
37288;SDS011;23174;49.462;11.000;2024-03-08T05:15:37;18.95;;;15.38;;
37288;SDS011;23174;49.462;11.000;2024-03-08T05:17:39;17.50;;;15.50;;
37288;SDS011;23174;49.462;11.000;2024-03-08T05:19:40;17.63;;;15.70;;
37288;SDS011;23174;49.462;11.000;2024-03-08T05:21:40;19.70;;;16.38;;
37288;SDS011;23174;49.462;11.000;2024-03-08T05:23:41;20.00;;;15.82;;
37288;SDS011;23174;49.462;11.000;2024-03-08T05:25:41;19.00;;;16.13;;
37288;SDS011;23174;49.462;11.000;2024-03-08T05:27:42;17.48;;;15.30;;
37288;SDS011;23174;49.462;11.000;2024-03-08T05:29:42;16.95;;;15.18;;
37288;SDS011;23174;49.462;11.000;2024-03-08T05:31:49;18.55;;;15.80;;
37288;SDS011;23174;49.462;11.000;2024-03-08T05:33:52;18.63;;;15.10;;
37288;SDS011;23174;49.462;11.000;2024-03-08T05:35:54;19.70;;;16.65;;
37288;SDS011;23174;49.462;11.000;2024-03-08T05:37:54;19.60;;;15.50;;
37288;SDS011;23174;49.462;11.000;2024-03-08T05:39:55;21.73;;;16.77;;
37288;SDS011;23174;49.462;11.000;2024-03-08T05:41:55;21.55;;;17.23;;
37288;SDS011;23174;49.462;11.000;2024-03-08T05:43:56;21.88;;;17.85;;
37288;SDS011;23174;49.462;11.000;2024-03-08T05:45:56;21.38;;;17.33;;
37288;SDS011;23174;49.462;11.000;2024-03-08T05:47:57;19.38;;;17.27;;
37288;SDS011;23174;49.462;11.000;2024-03-08T05:49:57;19.55;;;17.42;;
37288;SDS011;23174;49.462;11.000;2024-03-08T05:51:58;18.35;;;16.45;;
37288;SDS011;23174;49.462;11.000;2024-03-08T05:54:00;18.92;;;16.75;;
37288;SDS011;23174;49.462;11.000;2024-03-08T05:56:04;18.95;;;16.95;;
37288;SDS011;23174;49.462;11.000;2024-03-08T05:58:05;18.88;;;16.85;;
37288;SDS011;23174;49.462;11.000;2024-03-08T06:00:08;17.42;;;15.63;;
37288;SDS011;23174;49.462;11.000;2024-03-08T06:02:15;20.92;;;17.00;;
37288;SDS011;23174;49.462;11.000;2024-03-08T06:04:19;18.10;;;16.20;;
37288;SDS011;23174;49.462;11.000;2024-03-08T06:06:19;18.30;;;16.33;;
37288;SDS011;23174;49.462;11.000;2024-03-08T06:08:21;23.20;;;17.17;;
37288;SDS011;23174;49.462;11.000;2024-03-08T06:10:22;21.63;;;16.55;;
37288;SDS011;23174;49.462;11.000;2024-03-08T06:12:22;18.35;;;16.35;;
37288;SDS011;23174;49.462;11.000;2024-03-08T06:14:24;19.75;;;16.85;;
37288;SDS011;23174;49.462;11.000;2024-03-08T06:16:24;18.05;;;16.05;;
37288;SDS011;23174;49.462;11.000;2024-03-08T06:18:27;21.63;;;16.92;;
37288;SDS011;23174;49.462;11.000;2024-03-08T06:20:28;22.80;;;18.98;;
37288;SDS011;23174;49.462;11.000;2024-03-08T06:22:28;18.80;;;16.45;;
37288;SDS011;23174;49.462;11.000;2024-03-08T06:24:30;20.02;;;18.02;;
37288;SDS011;23174;49.462;11.000;2024-03-08T06:26:31;19.55;;;17.45;;
37288;SDS011;23174;49.462;11.000;2024-03-08T06:28:31;19.98;;;17.65;;
37288;SDS011;23174;49.462;11.000;2024-03-08T06:30:32;20.98;;;18.40;;
37288;SDS011;23174;49.462;11.000;2024-03-08T06:32:34;21.20;;;18.25;;
37288;SDS011;23174;49.462;11.000;2024-03-08T06:34:35;21.25;;;17.92;;
37288;SDS011;23174;49.462;11.000;2024-03-08T06:36:35;21.75;;;18.33;;
37288;SDS011;23174;49.462;11.000;2024-03-08T06:38:38;21.75;;;19.15;;
37288;SDS011;23174;49.462;11.000;2024-03-08T06:40:42;21.98;;;19.23;;
37288;SDS011;23174;49.462;11.000;2024-03-08T06:42:43;20.42;;;18.30;;
37288;SDS011;23174;49.462;11.000;2024-03-08T06:44:43;25.63;;;18.40;;
37288;SDS011;23174;49.462;11.000;2024-03-08T06:46:49;21.00;;;18.80;;
37288;SDS011;23174;49.462;11.000;2024-03-08T06:48:49;21.33;;;18.77;;
37288;SDS011;23174;49.462;11.000;2024-03-08T06:50:50;21.20;;;17.55;;
37288;SDS011;23174;49.462;11.000;2024-03-08T06:52:50;21.20;;;18.67;;
37288;SDS011;23174;49.462;11.000;2024-03-08T06:54:53;21.25;;;17.83;;
37288;SDS011;23174;49.462;11.000;2024-03-08T06:56:54;23.00;;;18.15;;
37288;SDS011;23174;49.462;11.000;2024-03-08T06:58:54;21.55;;;18.38;;
37288;SDS011;23174;49.462;11.000;2024-03-08T07:00:55;22.13;;;19.80;;
37288;SDS011;23174;49.462;11.000;2024-03-08T07:02:58;21.83;;;19.60;;
37288;SDS011;23174;49.462;11.000;2024-03-08T07:05:02;27.65;;;19.48;;
37288;SDS011;23174;49.462;11.000;2024-03-08T07:07:04;27.85;;;18.92;;
37288;SDS011;23174;49.462;11.000;2024-03-08T07:09:05;23.30;;;20.25;;
37288;SDS011;23174;49.462;11.000;2024-03-08T07:11:05;22.60;;;19.60;;
37288;SDS011;23174;49.462;11.000;2024-03-08T07:13:06;22.92;;;19.40;;
37288;SDS011;23174;49.462;11.000;2024-03-08T07:15:07;23.90;;;20.10;;
37288;SDS011;23174;49.462;11.000;2024-03-08T07:17:08;20.67;;;18.33;;
37288;SDS011;23174;49.462;11.000;2024-03-08T07:19:09;22.30;;;17.85;;
37288;SDS011;23174;49.462;11.000;2024-03-08T07:21:09;20.67;;;18.20;;
37288;SDS011;23174;49.462;11.000;2024-03-08T07:23:13;22.88;;;18.45;;
37288;SDS011;23174;49.462;11.000;2024-03-08T07:25:33;22.30;;;18.35;;
37288;SDS011;23174;49.462;11.000;2024-03-08T07:27:35;22.52;;;18.33;;
37288;SDS011;23174;49.462;11.000;2024-03-08T07:29:36;21.85;;;18.63;;
37288;SDS011;23174;49.462;11.000;2024-03-08T07:31:36;21.05;;;18.88;;
37288;SDS011;23174;49.462;11.000;2024-03-08T07:33:37;21.77;;;19.33;;
37288;SDS011;23174;49.462;11.000;2024-03-08T07:35:38;23.92;;;18.92;;
37288;SDS011;23174;49.462;11.000;2024-03-08T07:37:39;21.15;;;18.38;;
37288;SDS011;23174;49.462;11.000;2024-03-08T07:39:39;22.60;;;18.60;;
37288;SDS011;23174;49.462;11.000;2024-03-08T07:41:40;21.70;;;18.88;;
37288;SDS011;23174;49.462;11.000;2024-03-08T07:43:40;22.65;;;18.55;;
37288;SDS011;23174;49.462;11.000;2024-03-08T07:45:41;21.55;;;18.90;;
37288;SDS011;23174;49.462;11.000;2024-03-08T07:47:41;21.77;;;19.48;;
37288;SDS011;23174;49.462;11.000;2024-03-08T07:49:42;21.13;;;18.92;;
37288;SDS011;23174;49.462;11.000;2024-03-08T07:51:44;21.45;;;19.02;;
37288;SDS011;23174;49.462;11.000;2024-03-08T07:53:44;20.92;;;17.77;;
37288;SDS011;23174;49.462;11.000;2024-03-08T07:55:45;22.48;;;18.85;;
37288;SDS011;23174;49.462;11.000;2024-03-08T07:57:49;23.38;;;19.15;;
37288;SDS011;23174;49.462;11.000;2024-03-08T07:59:49;22.35;;;18.40;;
37288;SDS011;23174;49.462;11.000;2024-03-08T08:01:50;19.25;;;17.23;;
37288;SDS011;23174;49.462;11.000;2024-03-08T08:03:50;21.00;;;17.35;;
37288;SDS011;23174;49.462;11.000;2024-03-08T08:05:51;20.50;;;17.52;;
37288;SDS011;23174;49.462;11.000;2024-03-08T08:07:51;20.30;;;18.13;;
37288;SDS011;23174;49.462;11.000;2024-03-08T08:09:53;21.60;;;19.17;;
37288;SDS011;23174;49.462;11.000;2024-03-08T08:11:56;23.33;;;18.42;;
37288;SDS011;23174;49.462;11.000;2024-03-08T08:13:57;24.40;;;18.33;;
37288;SDS011;23174;49.462;11.000;2024-03-08T08:15:58;21.92;;;18.30;;
37288;SDS011;23174;49.462;11.000;2024-03-08T08:17:59;19.27;;;17.13;;
37288;SDS011;23174;49.462;11.000;2024-03-08T08:20:00;21.85;;;18.08;;
37288;SDS011;23174;49.462;11.000;2024-03-08T08:22:03;26.88;;;18.27;;
37288;SDS011;23174;49.462;11.000;2024-03-08T08:24:04;20.45;;;18.33;;
37288;SDS011;23174;49.462;11.000;2024-03-08T08:26:04;21.85;;;18.63;;
37288;SDS011;23174;49.462;11.000;2024-03-08T08:28:06;19.90;;;17.77;;
37288;SDS011;23174;49.462;11.000;2024-03-08T08:30:06;23.08;;;17.60;;
37288;SDS011;23174;49.462;11.000;2024-03-08T08:32:08;22.85;;;18.48;;
37288;SDS011;23174;49.462;11.000;2024-03-08T08:34:09;20.35;;;16.98;;
37288;SDS011;23174;49.462;11.000;2024-03-08T08:36:11;21.10;;;17.42;;
37288;SDS011;23174;49.462;11.000;2024-03-08T08:38:12;21.52;;;18.10;;
37288;SDS011;23174;49.462;11.000;2024-03-08T08:40:12;19.70;;;17.60;;
37288;SDS011;23174;49.462;11.000;2024-03-08T08:42:17;23.08;;;17.63;;
37288;SDS011;23174;49.462;11.000;2024-03-08T08:44:18;20.00;;;16.85;;
37288;SDS011;23174;49.462;11.000;2024-03-08T08:46:18;20.65;;;17.60;;
37288;SDS011;23174;49.462;11.000;2024-03-08T08:48:19;26.20;;;18.98;;
37288;SDS011;23174;49.462;11.000;2024-03-08T08:50:19;31.33;;;21.42;;
37288;SDS011;23174;49.462;11.000;2024-03-08T08:52:23;22.85;;;17.95;;
37288;SDS011;23174;49.462;11.000;2024-03-08T08:54:23;18.88;;;16.27;;
37288;SDS011;23174;49.462;11.000;2024-03-08T08:56:25;16.73;;;14.13;;
37288;SDS011;23174;49.462;11.000;2024-03-08T08:58:25;18.42;;;15.20;;
37288;SDS011;23174;49.462;11.000;2024-03-08T09:00:27;16.58;;;14.88;;
37288;SDS011;23174;49.462;11.000;2024-03-08T09:02:28;18.05;;;15.73;;
37288;SDS011;23174;49.462;11.000;2024-03-08T09:04:29;21.23;;;14.90;;
37288;SDS011;23174;49.462;11.000;2024-03-08T09:06:32;17.23;;;13.40;;
37288;SDS011;23174;49.462;11.000;2024-03-08T09:08:33;16.45;;;14.57;;
37288;SDS011;23174;49.462;11.000;2024-03-08T09:10:34;17.45;;;14.30;;
37288;SDS011;23174;49.462;11.000;2024-03-08T09:12:34;16.23;;;14.50;;
37288;SDS011;23174;49.462;11.000;2024-03-08T09:14:35;19.00;;;13.60;;
37288;SDS011;23174;49.462;11.000;2024-03-08T09:16:36;16.95;;;13.73;;
37288;SDS011;23174;49.462;11.000;2024-03-08T09:18:36;19.75;;;14.40;;
37288;SDS011;23174;49.462;11.000;2024-03-08T09:20:37;19.08;;;14.98;;
37288;SDS011;23174;49.462;11.000;2024-03-08T09:22:37;15.15;;;13.55;;
37288;SDS011;23174;49.462;11.000;2024-03-08T09:24:38;16.45;;;14.60;;
37288;SDS011;23174;49.462;11.000;2024-03-08T09:26:39;15.05;;;13.45;;
37288;SDS011;23174;49.462;11.000;2024-03-08T09:28:42;15.80;;;13.90;;
37288;SDS011;23174;49.462;11.000;2024-03-08T09:30:42;15.88;;;14.25;;
37288;SDS011;23174;49.462;11.000;2024-03-08T09:32:44;16.48;;;14.00;;
37288;SDS011;23174;49.462;11.000;2024-03-08T09:34:45;15.98;;;14.20;;
37288;SDS011;23174;49.462;11.000;2024-03-08T09:36:45;18.85;;;13.98;;
37288;SDS011;23174;49.462;11.000;2024-03-08T09:38:46;18.30;;;13.02;;
37288;SDS011;23174;49.462;11.000;2024-03-08T09:40:47;14.80;;;13.20;;
37288;SDS011;23174;49.462;11.000;2024-03-08T09:42:48;17.08;;;12.18;;
37288;SDS011;23174;49.462;11.000;2024-03-08T09:44:49;14.40;;;12.88;;
37288;SDS011;23174;49.462;11.000;2024-03-08T09:46:49;15.60;;;12.95;;
37288;SDS011;23174;49.462;11.000;2024-03-08T09:48:53;22.48;;;13.07;;
37288;SDS011;23174;49.462;11.000;2024-03-08T09:50:54;16.08;;;12.82;;
37288;SDS011;23174;49.462;11.000;2024-03-08T09:52:56;16.00;;;13.32;;
37288;SDS011;23174;49.462;11.000;2024-03-08T09:54:59;15.55;;;11.75;;
37288;SDS011;23174;49.462;11.000;2024-03-08T09:57:01;18.65;;;13.15;;
37288;SDS011;23174;49.462;11.000;2024-03-08T09:59:04;19.00;;;13.15;;
37288;SDS011;23174;49.462;11.000;2024-03-08T10:01:22;14.43;;;13.02;;
37288;SDS011;23174;49.462;11.000;2024-03-08T10:03:23;13.57;;;12.18;;
37288;SDS011;23174;49.462;11.000;2024-03-08T10:05:26;15.45;;;12.95;;
37288;SDS011;23174;49.462;11.000;2024-03-08T10:07:26;15.60;;;13.07;;
37288;SDS011;23174;49.462;11.000;2024-03-08T10:09:27;12.95;;;11.68;;
37288;SDS011;23174;49.462;11.000;2024-03-08T10:11:27;14.48;;;12.68;;
37288;SDS011;23174;49.462;11.000;2024-03-08T10:13:28;14.55;;;12.60;;
37288;SDS011;23174;49.462;11.000;2024-03-08T10:15:30;14.48;;;12.98;;
37288;SDS011;23174;49.462;11.000;2024-03-08T10:17:34;14.63;;;12.27;;
37288;SDS011;23174;49.462;11.000;2024-03-08T10:19:35;30.05;;;14.07;;
37288;SDS011;23174;49.462;11.000;2024-03-08T10:21:36;29.60;;;13.52;;
37288;SDS011;23174;49.462;11.000;2024-03-08T10:23:48;20.88;;;12.40;;
37288;SDS011;23174;49.462;11.000;2024-03-08T10:25:50;14.00;;;12.05;;
37288;SDS011;23174;49.462;11.000;2024-03-08T10:27:51;11.38;;;10.30;;
37288;SDS011;23174;49.462;11.000;2024-03-08T10:29:52;16.98;;;12.00;;
37288;SDS011;23174;49.462;11.000;2024-03-08T10:31:52;12.25;;;11.05;;
37288;SDS011;23174;49.462;11.000;2024-03-08T10:33:53;13.38;;;11.98;;
37288;SDS011;23174;49.462;11.000;2024-03-08T10:35:54;12.27;;;11.05;;
37288;SDS011;23174;49.462;11.000;2024-03-08T10:37:56;33.20;;;10.40;;
37288;SDS011;23174;49.462;11.000;2024-03-08T10:40:05;13.68;;;11.43;;
37288;SDS011;23174;49.462;11.000;2024-03-08T10:42:16;12.77;;;11.45;;
37288;SDS011;23174;49.462;11.000;2024-03-08T10:48:37;12.18;;;10.88;;
37288;SDS011;23174;49.462;11.000;2024-03-08T10:50:44;13.20;;;11.52;;
37288;SDS011;23174;49.462;11.000;2024-03-08T10:52:49;11.93;;;10.57;;
37288;SDS011;23174;49.462;11.000;2024-03-08T10:54:51;11.23;;;10.18;;
37288;SDS011;23174;49.462;11.000;2024-03-08T10:56:54;13.32;;;10.18;;
37288;SDS011;23174;49.462;11.000;2024-03-08T10:58:55;14.45;;;10.68;;
37288;SDS011;23174;49.462;11.000;2024-03-08T11:00:56;11.80;;;10.60;;
37288;SDS011;23174;49.462;11.000;2024-03-08T11:02:57;11.88;;;10.23;;
37288;SDS011;23174;49.462;11.000;2024-03-08T11:04:57;12.57;;;10.57;;
37288;SDS011;23174;49.462;11.000;2024-03-08T11:07:01;11.07;;;9.70;;
37288;SDS011;23174;49.462;11.000;2024-03-08T11:11:32;11.70;;;10.55;;
37288;SDS011;23174;49.462;11.000;2024-03-08T11:13:38;11.95;;;9.38;;
37288;SDS011;23174;49.462;11.000;2024-03-08T11:15:46;10.93;;;9.73;;
37288;SDS011;23174;49.462;11.000;2024-03-08T11:17:48;11.05;;;9.98;;
37288;SDS011;23174;49.462;11.000;2024-03-08T11:19:49;10.32;;;9.40;;
37288;SDS011;23174;49.462;11.000;2024-03-08T11:21:58;10.38;;;9.48;;
37288;SDS011;23174;49.462;11.000;2024-03-08T11:24:06;13.40;;;8.88;;
37288;SDS011;23174;49.462;11.000;2024-03-08T11:26:17;10.40;;;9.20;;
37288;SDS011;23174;49.462;11.000;2024-03-08T11:28:20;10.63;;;9.65;;
37288;SDS011;23174;49.462;11.000;2024-03-08T11:30:23;10.13;;;9.13;;
37288;SDS011;23174;49.462;11.000;2024-03-08T11:32:26;9.00;;;8.20;;
37288;SDS011;23174;49.462;11.000;2024-03-08T11:34:28;10.10;;;9.10;;
37288;SDS011;23174;49.462;11.000;2024-03-08T11:36:30;9.45;;;8.32;;
37288;SDS011;23174;49.462;11.000;2024-03-08T11:38:46;9.73;;;8.23;;
37288;SDS011;23174;49.462;11.000;2024-03-08T11:40:51;8.85;;;8.05;;
37288;SDS011;23174;49.462;11.000;2024-03-08T11:42:52;11.40;;;8.63;;
37288;SDS011;23174;49.462;11.000;2024-03-08T11:44:52;10.38;;;7.60;;
37288;SDS011;23174;49.462;11.000;2024-03-08T11:46:53;8.75;;;7.72;;